createdAt,value
2022-12-04T00:00:54.533Z,102005.55
2022-12-04T00:01:56.699Z,102007.30
2022-12-04T00:02:58.903Z,102002.77
2022-12-04T00:04:00.989Z,102009.80
2022-12-04T00:05:03.791Z,102009.77
2022-12-04T00:07:48.980Z,102013.61
2022-12-04T00:08:51.318Z,102010.43
2022-12-04T00:09:53.890Z,102014.87
2022-12-04T00:10:56.445Z,102010.36
2022-12-04T00:11:58.522Z,102014.80
2022-12-04T00:13:00.704Z,102014.80
2022-12-04T00:14:06.906Z,102004.93
2022-12-04T00:15:25.922Z,102013.81
2022-12-04T00:16:15.086Z,102016.49
2022-12-04T00:17:17.362Z,102000.52
2022-12-04T00:18:19.574Z,102000.52
2022-12-04T00:19:21.557Z,102004.70
2022-12-04T00:20:23.639Z,102002.02
2022-12-04T00:21:26.760Z,102002.81
2022-12-04T00:22:28.898Z,102010.87
2022-12-04T00:23:32.141Z,102006.39
2022-12-04T00:24:34.398Z,102011.77
2022-12-04T00:25:41.132Z,102004.57
2022-12-04T00:26:40.756Z,102014.38
2022-12-04T00:27:43.848Z,102012.56
2022-12-04T00:28:46.190Z,102017.86
2022-12-04T00:29:49.122Z,102010.70
2022-12-04T00:30:52.109Z,102008.88
2022-12-04T00:31:54.281Z,102013.32
2022-12-04T00:32:56.374Z,102016.00
2022-12-04T00:33:59.164Z,102018.62
2022-12-04T00:35:01.731Z,102015.08
2022-12-04T00:36:06.490Z,102019.48
2022-12-04T00:37:10.289Z,102017.70
2022-12-04T00:38:12.777Z,102018.56
2022-12-04T00:39:15.356Z,102021.23
2022-12-04T00:40:17.781Z,102019.42
2022-12-04T00:41:22.106Z,102016.70
2022-12-04T00:42:24.259Z,102012.20
2022-12-04T00:43:26.835Z,102022.07
2022-12-04T00:44:28.912Z,102013.05
2022-12-04T00:45:31.061Z,102021.04
2022-12-04T00:46:34.550Z,102018.42
2022-12-04T00:47:36.786Z,102029.03
2022-12-04T00:48:39.351Z,102026.34
2022-12-04T00:49:41.930Z,102029.03
2022-12-04T00:50:44.783Z,102023.66
2022-12-04T00:51:46.903Z,102029.03
2022-12-04T00:52:50.444Z,102029.98
2022-12-04T00:53:52.551Z,102027.23
2022-12-04T00:54:54.961Z,102026.34
2022-12-04T00:55:57.832Z,102033.47
2022-12-04T00:57:00.745Z,102029.86
2022-12-04T00:58:02.838Z,102031.61
2022-12-04T00:59:04.918Z,102031.61
2022-12-04T01:00:08.256Z,102026.25
2022-12-04T01:01:12.406Z,102028.93
2022-12-04T01:02:14.755Z,102029.72
2022-12-04T01:03:16.766Z,102026.17
2022-12-04T01:04:18.918Z,102038.67
2022-12-04T01:05:21.775Z,102035.09
2022-12-04T01:06:26.788Z,102028.86
2022-12-04T01:07:29.486Z,102031.48
2022-12-04T01:08:32.855Z,102028.80
2022-12-04T01:09:35.362Z,102032.34
2022-12-04T01:10:38.718Z,102033.23
2022-12-04T01:11:40.972Z,102033.23
2022-12-04T01:12:43.496Z,102034.96
2022-12-04T01:13:45.701Z,102030.48
2022-12-04T01:14:47.717Z,102030.48
2022-12-04T01:15:50.019Z,102025.12
2022-12-04T01:16:52.283Z,102030.48
2022-12-04T01:17:55.351Z,102027.80
2022-12-04T01:18:57.427Z,102025.12
2022-12-04T01:20:00.802Z,102019.68
2022-12-04T01:21:03.557Z,102030.42
2022-12-04T01:22:05.792Z,102026.80
2022-12-04T01:23:08.463Z,102025.05
2022-12-04T01:24:11.794Z,102025.91
2022-12-04T01:25:14.953Z,102020.54
2022-12-04T01:26:17.060Z,102017.79
2022-12-04T01:27:19.646Z,102022.30
2022-12-04T01:28:22.209Z,102023.16
2022-12-04T01:29:24.292Z,102019.61
2022-12-04T01:30:26.764Z,102021.37
2022-12-04T01:31:30.080Z,102025.84
2022-12-04T01:32:32.402Z,102027.60
2022-12-04T01:33:34.804Z,102026.67
2022-12-04T01:34:36.919Z,102025.78
2022-12-04T01:35:40.023Z,102021.30
2022-12-04T01:36:42.359Z,102020.37
2022-12-04T01:37:44.804Z,102023.92
2022-12-04T01:38:46.881Z,102025.74
2022-12-04T01:39:49.421Z,102016.93
2022-12-04T01:40:51.807Z,102023.63
2022-12-04T01:41:53.891Z,102014.38
2022-12-04T01:42:56.005Z,102015.86
2022-12-04T01:45:46.176Z,102025.66
2022-12-04T01:47:01.908Z,102022.15
2022-12-04T01:49:39.156Z,102019.75
2022-12-04T01:50:42.128Z,102022.22
2022-12-04T01:51:47.381Z,102019.11
2022-12-04T01:52:49.917Z,102025.69
2022-12-04T01:54:13.886Z,102023.30
2022-12-04T01:55:16.192Z,102028.03
2022-12-04T01:56:20.257Z,102022.97
2022-12-04T01:57:24.390Z,102023.19
2022-12-04T01:58:29.299Z,102024.33
2022-12-04T01:59:34.162Z,102023.61
2022-12-04T02:00:36.329Z,102027.36
2022-12-04T02:01:43.331Z,102022.19
2022-12-04T02:02:45.994Z,102028.66
2022-12-04T02:03:48.288Z,102017.42
2022-12-04T02:04:50.816Z,102017.42
2022-12-04T02:05:52.913Z,102023.80
2022-12-04T02:06:55.831Z,102030.20
2022-12-04T02:08:01.433Z,102025.03
2022-12-04T02:09:03.726Z,102028.77
2022-12-04T02:10:07.472Z,102026.19
2022-12-04T02:11:16.661Z,102021.86
2022-12-04T02:12:34.779Z,102019.33
2022-12-04T02:14:10.026Z,102027.45
2022-12-04T02:15:31.636Z,102021.35
2022-12-04T02:16:55.963Z,102019.73
2022-12-04T02:18:20.156Z,102014.45
2022-12-04T02:19:40.973Z,102020.81
2022-12-04T02:20:59.208Z,102019.19
2022-12-04T02:22:02.256Z,102021.16
2022-12-04T04:34:28.140Z,102072.47
2022-12-04T04:35:35.208Z,102077.94
2022-12-04T04:38:08.332Z,102072.02
2022-12-04T04:39:34.160Z,102076.48
2022-12-04T04:40:54.998Z,102077.13
2022-12-04T04:43:32.664Z,102076.09
2022-12-04T04:44:44.195Z,102072.53
2022-12-04T04:45:47.828Z,102073.15
2022-12-04T04:46:52.344Z,102066.66
2022-12-04T04:47:58.367Z,102065.53
2022-12-04T04:49:02.331Z,102073.28
2022-12-04T04:50:06.491Z,102065.91
2022-12-04T04:51:08.606Z,102067.42
2022-12-04T04:52:11.760Z,102071.66
2022-12-04T04:53:19.610Z,102061.66
2022-12-04T04:54:21.663Z,102073.02
2022-12-04T04:55:23.812Z,102072.73
2022-12-04T04:56:27.473Z,102061.85
2022-12-04T04:57:32.444Z,102068.77
2022-12-04T04:58:34.777Z,102066.84
2022-12-04T04:59:36.850Z,102061.30
2022-12-04T05:00:39.043Z,102064.73
2022-12-04T05:01:42.204Z,102061.00
2022-12-04T05:02:45.060Z,102062.66
2022-12-04T05:03:47.983Z,102061.55
2022-12-04T05:04:50.110Z,102065.02
2022-12-04T05:05:52.550Z,102064.88
2022-12-04T05:06:55.609Z,102067.40
2022-12-04T05:07:58.211Z,102069.06
2022-12-04T05:09:00.515Z,102069.86
2022-12-04T05:10:03.649Z,102071.52
2022-12-04T05:11:05.920Z,102075.84
2022-12-04T05:12:10.515Z,102078.42
2022-12-04T05:13:12.878Z,102081.00
2022-12-04T05:14:15.054Z,102076.48
2022-12-04T05:15:17.198Z,102073.71
2022-12-04T05:16:19.890Z,102079.86
2022-12-04T05:17:22.229Z,102082.48
2022-12-04T05:18:24.298Z,102076.16
2022-12-04T05:19:26.312Z,102077.87
2022-12-04T05:20:28.496Z,102076.04
2022-12-04T05:21:30.972Z,102075.98
2022-12-04T05:22:34.730Z,102080.37
2022-12-04T05:23:37.285Z,102075.88
2022-12-04T05:24:39.611Z,102075.83
2022-12-04T05:25:42.540Z,102079.34
2022-12-04T05:26:45.039Z,102079.34
2022-12-04T05:27:47.151Z,102065.91
2022-12-04T05:28:49.665Z,102076.56
2022-12-04T05:29:52.895Z,102063.23
2022-12-04T05:31:00.920Z,102063.23
2022-12-04T05:32:03.430Z,102078.22
2022-12-04T05:33:05.524Z,102077.30
2022-12-04T05:34:08.521Z,102074.56
2022-12-04T05:35:11.807Z,102081.73
2022-12-04T05:36:14.687Z,102079.00
2022-12-04T05:37:16.812Z,102083.36
2022-12-04T05:38:19.906Z,102083.36
2022-12-04T05:39:22.550Z,102086.03
2022-12-04T05:40:24.813Z,102073.55
2022-12-04T05:41:27.913Z,102079.70
2022-12-04T05:42:31.265Z,102087.73
2022-12-04T05:43:33.615Z,102085.96
2022-12-04T05:44:35.887Z,102084.14
2022-12-04T05:45:39.175Z,102084.98
2022-12-04T05:46:41.651Z,102093.88
2022-12-04T05:47:44.019Z,102089.39
2022-12-04T05:48:46.590Z,102090.29
2022-12-04T05:49:49.658Z,102088.48
2022-12-04T05:50:52.653Z,102089.34
2022-12-04T05:51:55.544Z,102085.74
2022-12-04T05:52:58.819Z,102086.61
2022-12-04T05:54:01.664Z,102086.61
2022-12-04T05:55:06.010Z,102088.37
2022-12-04T05:56:09.766Z,102084.77
2022-12-04T05:57:12.814Z,102090.98
2022-12-04T05:58:14.891Z,102088.31
2022-12-04T05:59:18.260Z,102090.98
2022-12-04T06:00:21.979Z,102091.89
2022-12-04T06:01:27.028Z,102085.58
2022-12-04T06:02:29.305Z,102090.94
2022-12-04T06:03:31.651Z,102085.58
2022-12-04T06:04:33.769Z,102086.48
2022-12-04T06:05:36.559Z,102093.59
2022-12-04T06:06:39.428Z,102093.59
2022-12-04T06:07:42.911Z,102085.56
2022-12-04T06:08:46.279Z,102090.91
2022-12-04T06:09:48.319Z,102093.59
2022-12-04T06:10:51.787Z,102086.42
2022-12-04T06:11:56.393Z,102097.13
2022-12-04T06:12:59.756Z,102095.38
2022-12-04T06:14:03.356Z,102094.52
2022-12-04T06:15:06.549Z,102088.26
2022-12-04T06:17:30.282Z,102078.11
2022-12-04T06:18:32.666Z,102086.53
2022-12-04T06:19:36.334Z,102082.95
2022-12-04T06:20:39.982Z,102098.16
2022-12-04T06:21:43.385Z,102091.89
2022-12-04T06:22:45.717Z,102095.48
2022-12-04T06:23:48.181Z,102103.46
2022-12-04T06:24:50.732Z,102094.62
2022-12-04T06:25:52.933Z,102094.56
2022-12-04T06:27:26.318Z,102092.80
2022-12-04T06:28:03.252Z,102101.70
2022-12-04T06:29:05.801Z,102098.11
2022-12-04T06:30:09.715Z,102099.92
2022-12-04T06:31:14.361Z,102099.92
2022-12-04T06:32:21.385Z,102105.22
2022-12-04T06:33:21.192Z,102100.78
2022-12-04T06:34:24.210Z,102111.50
2022-12-04T06:35:27.088Z,102110.58
2022-12-04T06:36:30.414Z,102111.50
2022-12-04T06:37:32.939Z,102113.31
2022-12-04T06:38:35.465Z,102107.95
2022-12-04T06:39:37.643Z,102108.81
2022-12-04T06:40:40.961Z,102114.17
2022-12-04T06:41:43.094Z,102121.29
2022-12-04T06:42:45.256Z,102117.71
2022-12-04T06:43:48.401Z,102110.58
2022-12-04T06:44:51.041Z,102115.94
2022-12-04T06:46:00.649Z,102116.80
2022-12-04T06:47:03.771Z,102124.83
2022-12-04T06:48:07.586Z,102124.83
2022-12-04T06:49:09.860Z,102120.39
2022-12-04T06:50:13.621Z,102126.64
2022-12-04T06:52:33.634Z,102118.27
2022-12-04T06:53:35.688Z,102129.33
2022-12-04T06:54:38.714Z,102123.07
2022-12-04T06:55:48.248Z,102123.07
2022-12-04T06:56:50.911Z,102132.00
2022-12-04T06:57:53.479Z,102130.19
2022-12-04T06:58:58.118Z,102124.83
2022-12-04T07:00:00.262Z,102138.22
2022-12-04T07:01:06.944Z,102132.86
2022-12-04T07:02:09.256Z,102138.22
2022-12-04T07:03:11.529Z,102136.44
2022-12-04T07:04:14.485Z,102132.86
2022-12-04T07:05:17.627Z,102139.98
2022-12-04T07:06:30.433Z,102131.95
2022-12-04T07:07:32.711Z,102131.08
2022-12-04T07:08:36.634Z,102132.86
2022-12-04T07:09:39.074Z,102131.95
2022-12-04T07:10:41.249Z,102131.95
2022-12-04T07:11:43.690Z,102128.41
2022-12-04T07:12:45.852Z,102129.27
2022-12-04T07:13:48.849Z,102126.59
2022-12-04T07:14:50.987Z,102123.91
2022-12-04T07:15:54.213Z,102130.19
2022-12-04T07:16:56.691Z,102131.95
2022-12-04T07:17:59.302Z,102131.95
2022-12-04T07:19:01.409Z,102131.95
2022-12-04T07:20:04.423Z,102125.67
2022-12-04T07:21:11.224Z,102132.76
2022-12-04T07:22:13.275Z,102131.89
2022-12-04T07:23:15.260Z,102139.06
2022-12-04T07:24:18.085Z,102139.92
2022-12-04T07:25:21.066Z,102138.11
2022-12-04T07:26:23.504Z,102138.11
2022-12-04T07:27:25.583Z,102138.11
2022-12-04T07:28:27.562Z,102135.44
2022-12-04T07:29:30.212Z,102133.66
2022-12-04T07:30:33.266Z,102138.11
2022-12-04T07:31:35.411Z,102132.76
2022-12-04T07:32:37.774Z,102139.02
2022-12-04T07:33:40.051Z,102137.20
2022-12-04T07:34:42.143Z,102134.52
2022-12-04T07:35:45.377Z,102127.38
2022-12-04T07:36:47.523Z,102135.41
2022-12-04T07:37:49.514Z,102126.48
2022-12-04T07:38:51.619Z,102134.52
2022-12-04T07:39:56.136Z,102132.73
2022-12-04T07:40:59.543Z,102138.09
2022-12-04T07:42:02.177Z,102132.73
2022-12-04T07:43:04.846Z,102136.28
2022-12-04T07:44:06.940Z,102137.14
2022-12-04T07:45:09.937Z,102130.05
2022-12-04T07:46:14.183Z,102130.00
2022-12-04T07:47:18.331Z,102128.24
2022-12-04T07:48:20.465Z,102126.43
2022-12-04T07:49:22.552Z,102124.64
2022-12-04T07:50:26.807Z,102134.46
2022-12-04T07:51:29.628Z,102127.33
2022-12-04T07:53:49.862Z,102125.22
2022-12-04T07:54:51.920Z,102128.24
2022-12-04T07:55:54.317Z,102128.19
2022-12-04T07:56:57.599Z,102123.91
2022-12-04T07:57:59.728Z,102123.91
2022-12-04T07:59:01.864Z,102138.04
2022-12-04T08:00:05.416Z,102139.77
2022-12-04T08:01:20.112Z,102134.41
2022-12-04T08:02:22.703Z,102135.30
2022-12-04T08:03:24.674Z,102124.59
2022-12-04T08:04:26.718Z,102133.49
2022-12-04T08:05:30.141Z,102132.63
2022-12-04T08:06:33.804Z,102134.41
2022-12-04T08:07:36.215Z,102130.81
2022-12-04T08:08:38.335Z,102136.17
2022-12-04T08:09:40.563Z,102129.05
2022-12-04T08:10:42.827Z,102127.27
2022-12-04T08:11:45.099Z,102129.95
2022-12-04T08:12:47.959Z,102135.30
2022-12-04T08:13:58.212Z,102130.81
2022-12-04T08:15:01.364Z,102129.00
2022-12-04T08:16:05.814Z,102129.00
2022-12-04T08:17:08.509Z,102138.80
2022-12-04T08:18:11.017Z,102129.00
2022-12-04T08:19:13.785Z,102131.67
2022-12-04T08:20:15.956Z,102134.36
2022-12-04T08:21:20.259Z,102127.22
2022-12-04T08:22:25.215Z,102120.97
2022-12-04T08:23:26.483Z,102124.54
2022-12-04T08:24:28.568Z,102118.28
2022-12-04T08:25:31.067Z,102121.86
2022-12-04T08:26:35.445Z,102119.19
2022-12-04T08:27:37.633Z,102112.93
2022-12-04T08:28:40.212Z,102116.50
2022-12-04T08:29:42.186Z,102127.22
2022-12-04T08:30:44.293Z,102121.86
2022-12-04T08:31:47.396Z,102122.72
2022-12-04T08:32:50.129Z,102113.83
2022-12-04T08:33:54.228Z,102130.70
2022-12-04T08:34:56.351Z,102130.70
2022-12-04T08:35:58.464Z,102126.24
2022-12-04T08:37:02.286Z,102122.72
2022-12-04T08:38:04.487Z,102118.20
2022-12-04T08:39:07.614Z,102124.48
2022-12-04T08:40:12.447Z,102119.98
2022-12-04T08:41:16.277Z,102118.20
2022-12-04T08:42:18.494Z,102119.07
2022-12-04T08:43:20.573Z,102119.98
2022-12-04T08:44:22.784Z,102115.53
2022-12-04T08:45:25.239Z,102116.39
2022-12-04T08:46:27.615Z,102112.85
2022-12-04T08:47:30.062Z,102094.41
2022-12-04T08:48:32.235Z,102094.41
2022-12-04T08:49:35.224Z,102110.17
2022-12-04T08:50:40.448Z,102108.36
2022-12-04T08:51:42.647Z,102100.33
2022-12-04T08:52:46.543Z,102099.46
2022-12-04T08:53:57.626Z,102100.33
2022-12-04T08:55:00.609Z,102111.91
2022-12-04T08:56:03.529Z,102117.26
2022-12-04T08:57:06.092Z,102111.91
2022-12-04T08:59:20.255Z,102103.51
2022-12-04T09:00:23.734Z,102100.33
2022-12-04T09:01:26.564Z,102104.81
2022-12-04T09:02:29.246Z,102099.46
2022-12-04T09:03:31.331Z,102099.46
2022-12-04T09:04:34.606Z,102100.33
2022-12-04T09:05:36.759Z,102096.73
2022-12-04T09:06:39.042Z,102094.05
2022-12-04T09:07:42.023Z,102097.59
2022-12-04T09:08:44.219Z,102096.73
2022-12-04T09:09:48.564Z,102090.45
2022-12-04T09:10:51.072Z,102097.53
2022-12-04T09:11:53.144Z,102099.34
2022-12-04T09:12:55.072Z,102096.73
2022-12-04T09:13:57.037Z,102096.73
2022-12-04T09:14:59.438Z,102092.23
2022-12-04T09:17:15.108Z,102096.38
2022-12-04T09:18:17.957Z,102092.23
2022-12-04T09:19:21.785Z,102092.23
2022-12-04T09:20:26.504Z,102090.45
2022-12-04T09:21:29.167Z,102091.31
2022-12-04T09:22:57.839Z,102084.14
2022-12-04T09:23:39.572Z,102093.08
2022-12-04T09:24:42.287Z,102091.26
2022-12-04T09:25:45.420Z,102089.50
2022-12-04T09:26:48.036Z,102089.50
2022-12-04T09:27:51.680Z,102085.91
2022-12-04T09:28:55.260Z,102080.60
2022-12-04T09:29:57.732Z,102093.94
2022-12-04T09:31:01.990Z,102093.94
2022-12-04T09:32:04.249Z,102094.86
2022-12-04T09:33:06.345Z,102091.26
2022-12-04T09:34:08.730Z,102085.91
2022-12-04T09:35:11.777Z,102088.58
2022-12-04T09:36:15.288Z,102077.00
2022-12-04T09:37:17.402Z,102080.55
2022-12-04T09:38:20.917Z,102075.19
2022-12-04T09:39:23.056Z,102085.91
2022-12-04T09:40:37.511Z,102084.98
2022-12-04T09:42:07.417Z,102085.91
2022-12-04T09:43:34.465Z,102085.91
2022-12-04T09:44:41.980Z,102089.44
2022-12-04T09:47:00.744Z,102081.16
2022-12-04T09:48:04.302Z,102086.02
2022-12-04T09:49:19.111Z,102084.25
2022-12-04T09:50:23.630Z,102083.39
2022-12-04T09:51:26.971Z,102078.95
2022-12-04T09:52:55.991Z,102082.49
2022-12-04T09:55:31.055Z,102083.05
2022-12-04T09:56:33.479Z,102086.98
2022-12-04T09:57:41.226Z,102083.45
2022-12-04T09:58:57.815Z,102085.23
2022-12-04T09:59:59.946Z,102087.05
2022-12-04T10:01:03.323Z,102088.83
2022-12-04T10:02:13.030Z,102086.14
2022-12-04T10:04:30.629Z,102077.81
2022-12-04T10:05:45.303Z,102077.25
2022-12-04T10:06:58.277Z,102077.25
2022-12-04T10:09:22.094Z,102072.45
2022-12-04T10:10:41.994Z,102075.44
2022-12-04T10:11:54.077Z,102071.89
2022-12-04T10:13:05.400Z,102070.08
2022-12-04T10:14:29.615Z,102071.03
2022-12-04T10:15:38.930Z,102071.89
2022-12-04T10:17:17.789Z,102069.27
2022-12-04T10:18:46.352Z,102065.73
2022-12-04T10:20:01.415Z,102070.24
2022-12-04T10:21:19.635Z,102063.13
2022-12-04T10:22:31.609Z,102055.15
2022-12-04T10:23:40.706Z,102059.64
2022-12-04T10:25:06.395Z,102056.13
2022-12-04T10:26:16.555Z,102059.75
2022-12-04T10:27:31.570Z,102050.82
2022-12-04T10:28:36.171Z,102053.50
2022-12-04T10:29:38.494Z,102052.64
2022-12-04T10:30:41.271Z,102045.52
2022-12-04T10:31:43.877Z,102050.02
2022-12-04T10:32:46.922Z,102046.42
2022-12-04T10:34:05.264Z,102041.06
2022-12-04T10:36:35.308Z,102042.44
2022-12-04T10:37:38.389Z,102032.08
2022-12-04T10:38:50.627Z,102033.89
2022-12-04T10:39:59.972Z,102043.69
2022-12-04T10:41:07.764Z,102035.66
2022-12-04T10:42:32.952Z,102037.37
2022-12-04T10:43:41.965Z,102035.59
2022-12-04T10:44:44.205Z,102039.14
2022-12-04T10:45:46.403Z,102032.92
2022-12-04T10:46:50.379Z,102032.02
2022-12-04T10:47:53.656Z,102031.16
2022-12-04T10:49:15.151Z,102032.92
2022-12-04T10:50:22.699Z,102031.10
2022-12-04T10:51:24.852Z,102025.75
2022-12-04T10:52:27.456Z,102023.97
2022-12-04T10:53:31.929Z,102018.38
2022-12-04T10:54:39.620Z,102018.38
2022-12-04T10:55:42.333Z,102023.63
2022-12-04T10:56:58.492Z,102027.14
2022-12-04T10:58:00.745Z,102008.34
2022-12-04T11:00:30.056Z,102002.31
2022-12-04T11:01:33.489Z,102002.63
2022-12-04T11:02:36.701Z,102003.59
2022-12-04T11:03:39.365Z,101996.41
2022-12-04T11:04:42.415Z,102001.77
2022-12-04T11:05:47.577Z,102007.07
2022-12-04T11:06:50.920Z,101998.17
2022-12-04T11:07:53.377Z,101999.95
2022-12-04T11:08:55.550Z,102003.59
2022-12-04T11:09:59.434Z,101997.34
2022-12-04T11:11:05.869Z,101992.09
2022-12-04T11:12:11.307Z,101993.08
2022-12-04T11:13:17.537Z,101984.23
2022-12-04T11:14:21.575Z,101986.91
2022-12-04T11:15:23.712Z,101984.23
2022-12-04T11:17:40.784Z,101984.78
2022-12-04T11:18:50.686Z,101988.70
2022-12-04T11:21:15.446Z,101978.59
2022-12-04T11:22:18.317Z,101978.16
2022-12-04T11:23:20.481Z,101988.12
2022-12-04T11:24:31.225Z,101982.77
2022-12-04T11:25:37.838Z,101987.23
2022-12-04T11:26:41.785Z,101988.92
2022-12-04T11:27:46.627Z,101985.33
2022-12-04T11:28:52.609Z,101982.59
2022-12-04T11:29:55.328Z,101981.70
2022-12-04T11:31:00.056Z,101981.67
2022-12-04T11:32:07.487Z,101984.38
2022-12-04T11:33:10.086Z,101981.75
2022-12-04T11:34:16.493Z,101980.89
2022-12-04T11:35:23.823Z,101982.70
2022-12-04T11:37:53.461Z,101978.82
2022-12-04T11:39:09.102Z,101988.98
2022-12-04T11:40:17.125Z,101978.09
2022-12-04T11:41:27.446Z,101977.00
2022-12-04T11:43:33.956Z,101969.69
2022-12-04T11:44:36.102Z,101974.06
2022-12-04T11:45:39.133Z,101978.50
2022-12-04T11:46:45.114Z,101978.38
2022-12-04T11:47:55.182Z,101981.80
2022-12-04T11:48:57.332Z,101975.52
2022-12-04T11:51:43.033Z,101975.89
2022-12-04T11:53:01.261Z,101969.04
2022-12-04T11:55:59.047Z,101966.74
2022-12-04T11:57:30.975Z,101966.21
2022-12-04T11:59:06.043Z,101965.26
2022-12-04T12:00:11.526Z,101970.61
2022-12-04T12:01:29.060Z,101966.09
2022-12-04T12:02:55.551Z,101971.45
2022-12-04T12:04:18.298Z,101966.09
2022-12-04T12:05:31.500Z,101967.84
2022-12-04T12:06:46.175Z,101961.53
2022-12-04T12:08:03.318Z,101967.78
2022-12-04T12:09:15.500Z,101964.16
2022-12-04T12:10:32.161Z,101965.97
2022-12-04T12:12:59.471Z,101973.48
2022-12-04T12:14:09.266Z,101968.53
2022-12-04T12:15:35.632Z,101972.05
2022-12-04T12:16:50.019Z,101972.91
2022-12-04T12:19:42.681Z,101969.70
2022-12-04T12:20:54.685Z,101980.83
2022-12-04T12:22:12.614Z,101978.11
2022-12-04T12:23:27.354Z,101976.30
2022-12-04T12:24:34.749Z,101978.11
2022-12-04T12:27:07.830Z,101981.20
2022-12-04T12:28:36.457Z,101984.27
2022-12-04T12:31:05.931Z,101980.21
2022-12-04T12:32:28.257Z,101981.47
2022-12-04T12:33:36.516Z,101984.16
2022-12-04T12:34:43.165Z,101983.23
2022-12-04T12:36:07.030Z,101980.55
2022-12-04T12:37:22.261Z,101977.87
2022-12-04T12:38:27.124Z,101981.34
2022-12-04T12:40:52.298Z,101969.36
2022-12-04T12:43:20.523Z,101971.98
2022-12-04T12:44:51.233Z,101975.95
2022-12-04T12:45:56.518Z,101981.32
2022-12-04T12:47:01.232Z,101975.89
2022-12-04T12:48:28.137Z,101975.83
2022-12-04T12:49:33.014Z,101964.22
2022-12-04T12:50:42.161Z,101966.89
2022-12-04T12:51:51.156Z,101959.75
2022-12-04T12:53:00.263Z,101974.94
2022-12-04T12:54:14.839Z,101963.36
2022-12-04T12:55:36.559Z,101958.91
2022-12-04T12:56:47.812Z,101964.22
2022-12-04T12:57:49.129Z,101969.64
2022-12-04T12:58:53.552Z,101967.91
2022-12-04T13:01:20.706Z,101964.06
2022-12-04T13:02:52.836Z,101969.83
2022-12-04T13:04:01.450Z,101964.47
2022-12-04T13:05:05.483Z,101966.28
2022-12-04T13:07:33.370Z,101957.87
2022-12-04T13:08:45.013Z,101965.39
2022-12-04T13:11:06.505Z,101970.34
2022-12-04T13:12:11.783Z,101977.93
2022-12-04T13:14:35.294Z,101979.31
2022-12-04T13:15:49.817Z,101975.25
2022-12-04T13:18:35.083Z,101973.28
2022-12-04T13:19:40.633Z,101977.22
2022-12-04T13:20:46.754Z,101978.98
2022-12-04T13:22:11.031Z,101975.31
2022-12-04T13:23:19.621Z,101973.48
2022-12-04T13:24:34.999Z,101970.69
2022-12-04T13:27:48.928Z,101980.88
2022-12-04T13:28:55.746Z,101986.55
2022-12-04T13:30:07.591Z,101987.48
2022-12-04T13:31:48.100Z,101990.09
2022-12-04T13:33:03.443Z,101987.36
2022-12-04T13:34:12.386Z,101987.30
2022-12-04T13:35:19.418Z,101991.73
2022-12-04T13:36:26.095Z,101992.59
2022-12-04T13:40:38.353Z,101990.22
2022-12-04T13:41:41.603Z,101990.56
2022-12-04T13:42:43.702Z,101979.70
2022-12-04T13:43:46.787Z,101979.70
2022-12-04T13:44:59.664Z,101982.36
2022-12-04T13:47:34.451Z,101980.86
2022-12-04T13:48:42.470Z,101975.87
2022-12-04T13:49:44.611Z,101982.05
2022-12-04T13:50:46.801Z,101993.60
2022-12-04T13:51:48.831Z,101985.49
2022-12-04T13:52:50.952Z,101985.49
2022-12-04T13:54:14.148Z,101991.66
2022-12-04T13:55:37.898Z,101988.91
2022-12-04T13:57:56.142Z,101990.22
2022-12-04T13:59:04.208Z,101992.36
2022-12-04T14:00:25.864Z,101992.36
2022-12-04T14:03:22.967Z,101990.98
2022-12-04T14:05:46.073Z,101988.30
2022-12-04T14:06:50.170Z,101986.86
2022-12-04T14:08:07.583Z,101986.86
2022-12-04T14:10:34.964Z,101984.59
2022-12-04T14:11:44.909Z,101988.59
2022-12-04T14:14:08.230Z,101979.19
2022-12-04T14:15:24.114Z,101988.45
2022-12-04T14:16:30.241Z,101975.97
2022-12-04T14:17:37.043Z,101985.84
2022-12-04T14:18:40.239Z,101976.97
2022-12-04T14:19:42.702Z,101976.13
2022-12-04T14:20:44.807Z,101980.70
2022-12-04T14:21:46.920Z,101982.55
2022-12-04T14:22:49.417Z,101979.14
2022-12-04T14:23:51.885Z,101979.14
2022-12-04T14:27:09.992Z,101976.04
2022-12-04T14:27:45.384Z,101975.44
2022-12-04T14:28:48.679Z,101974.50
2022-12-04T14:29:54.361Z,101978.02
2022-12-04T14:31:07.303Z,101976.20
2022-12-04T14:33:56.405Z,101974.81
2022-12-04T14:34:59.368Z,101975.20
2022-12-04T14:36:10.491Z,101976.97
2022-12-04T14:37:26.073Z,101976.97
2022-12-04T14:38:28.213Z,101976.04
2022-12-04T14:39:40.042Z,101973.36
2022-12-04T14:40:44.107Z,101976.94
2022-12-04T14:41:46.891Z,101976.94
2022-12-04T14:42:49.010Z,101969.75
2022-12-04T14:43:52.054Z,101975.97
2022-12-04T14:44:59.151Z,101979.61
2022-12-04T14:46:08.755Z,101972.43
2022-12-04T14:47:38.464Z,101978.63
2022-12-04T14:49:05.859Z,101973.26
2022-12-04T14:50:37.662Z,101978.63
2022-12-04T14:51:50.572Z,101972.36
2022-12-04T14:54:50.574Z,101977.37
2022-12-04T14:56:08.959Z,101992.06
2022-12-04T14:57:35.118Z,101982.33
2022-12-04T14:58:37.891Z,101985.02
2022-12-04T15:00:58.600Z,101986.48
2022-12-04T15:02:01.282Z,101986.86
2022-12-04T15:03:03.314Z,101989.55
2022-12-04T15:04:24.675Z,101994.05
2022-12-04T15:05:28.595Z,101989.55
2022-12-04T15:06:32.039Z,101988.63
2022-12-04T15:07:34.284Z,101992.16
2022-12-04T15:08:39.009Z,101998.42
2022-12-04T15:09:41.065Z,101994.81
2022-12-04T15:10:48.782Z,101989.45
2022-12-04T15:11:53.360Z,101991.20
2022-12-04T15:12:55.561Z,101990.28
2022-12-04T15:14:02.507Z,101985.78
2022-12-04T15:15:25.398Z,101999.19
2022-12-04T15:16:28.615Z,101992.04
2022-12-04T15:17:30.964Z,101995.52
2022-12-04T15:18:36.713Z,101995.52
2022-12-04T15:19:39.600Z,101994.66
2022-12-04T15:20:51.739Z,101997.34
2022-12-04T15:21:55.284Z,101999.95
2022-12-04T15:22:57.419Z,101992.77
2022-12-04T15:24:02.122Z,101999.95
2022-12-04T15:25:04.662Z,101999.06
2022-12-04T15:26:13.308Z,102000.82
2022-12-04T15:27:16.519Z,102001.72
2022-12-04T15:53:27.585Z,101984.11
2022-12-04T15:54:30.302Z,101982.73
2022-12-04T15:55:36.585Z,101983.55
2022-12-04T15:56:39.019Z,101978.96
2022-12-04T15:57:43.156Z,101979.64
2022-12-04T15:58:54.492Z,101982.92
2022-12-04T15:59:56.722Z,101982.60
2022-12-04T16:01:10.013Z,101982.24
2022-12-04T16:02:30.326Z,101982.83
2022-12-04T16:03:35.955Z,101974.42
2022-12-04T16:04:44.042Z,101975.79
2022-12-04T16:05:42.232Z,101978.12
2022-12-04T16:06:47.004Z,101976.95
2022-12-04T16:09:28.706Z,101972.19
2022-12-04T16:10:33.721Z,101967.81
2022-12-04T16:11:36.975Z,101972.97
2022-12-04T16:12:39.236Z,101978.04
2022-12-04T16:13:42.955Z,101977.84
2022-12-04T16:14:46.751Z,101972.19
2022-12-04T16:15:49.485Z,101968.38
2022-12-04T16:16:53.220Z,101969.99